Time;durP1;ratioP1;P1;durP2;ratioP2;P2;SDS_P1;SDS_P2;PMS_P1;PMS_P2;Temp;Humidity;BMP_temperature;BMP_pressure;BME280_temperature;BME280_humidity;BME280_pressure;Samples;Min_cycle;Max_cycle;Signal;HPM_P1;HPM_P2
2024/04/24 00:02:16;;;;;;;16.55;3.70;;;;;;;5.35;100.00;101237.97;5348676;26;20458;-67
2024/04/24 00:04:42;;;;;;;15.60;3.00;;;;;;;5.29;100.00;101232.53;5348295;26;20000;-67
2024/04/24 00:07:07;;;;;;;15.65;3.00;;;;;;;5.14;100.00;101220.72;5390866;26;19997;-67
2024/04/24 00:09:32;;;;;;;15.35;3.08;;;;;;;5.08;100.00;101212.63;5348675;26;20001;-67
2024/04/24 00:11:58;;;;;;;17.13;3.38;;;;;;;4.94;100.00;101209.56;5348456;26;20012;-67
2024/04/24 00:14:25;;;;;;;17.50;3.30;;;;;;;4.84;100.00;101203.13;5348617;26;20030;-70
2024/04/24 00:16:50;;;;;;;10.90;2.90;;;;;;;4.88;100.00;101202.41;5348349;26;19997;-71
2024/04/24 00:19:15;;;;;;;14.63;3.20;;;;;;;4.93;100.00;101193.81;5348524;26;20004;-70
2024/04/24 00:21:41;;;;;;;12.75;3.15;;;;;;;4.90;100.00;101194.59;5346639;26;20001;-70
2024/04/24 00:24:06;;;;;;;12.00;2.92;;;;;;;4.90;100.00;101199.81;5348461;26;20004;-70
2024/04/24 00:26:33;;;;;;;13.50;2.92;;;;;;;4.94;100.00;101188.63;5348680;26;20011;-69
2024/04/24 00:28:58;;;;;;;13.38;3.03;;;;;;;5.00;100.00;101195.78;5346658;26;20007;-71
2024/04/24 00:31:24;;;;;;;13.70;3.20;;;;;;;4.97;100.00;101191.34;5346637;26;20454;-70
2024/04/24 00:33:49;;;;;;;13.55;3.30;;;;;;;4.96;100.00;101186.03;5346815;26;19993;-70
2024/04/24 00:36:14;;;;;;;12.30;2.97;;;;;;;4.85;100.00;101176.09;5348297;26;19996;-69
2024/04/24 00:38:40;;;;;;;15.27;3.42;;;;;;;4.82;100.00;101183.88;5347923;26;20406;-70
2024/04/24 00:41:06;;;;;;;16.20;3.70;;;;;;;4.78;100.00;101179.34;5348080;26;20004;-71
2024/04/24 00:43:31;;;;;;;13.48;3.33;;;;;;;4.80;100.00;101169.81;5348047;26;20001;-70
2024/04/24 00:45:58;;;;;;;12.68;3.10;;;;;;;4.83;100.00;101176.88;5390553;26;20030;-67
2024/04/24 00:48:25;;;;;;;13.73;3.47;;;;;;;4.87;100.00;101179.66;5348452;26;20029;-66
2024/04/24 00:50:51;;;;;;;15.43;3.50;;;;;;;4.83;100.00;101177.75;5348229;26;20009;-66
2024/04/24 00:53:17;;;;;;;14.48;3.25;;;;;;;4.83;100.00;101172.53;5347929;26;20502;-67
2024/04/24 00:55:43;;;;;;;17.60;3.72;;;;;;;4.85;100.00;101176.09;5348278;26;19992;-69
2024/04/24 00:58:09;;;;;;;13.23;3.50;;;;;;;4.79;100.00;101167.13;5348010;26;20011;-74
2024/04/24 01:00:36;;;;;;;16.95;3.70;;;;;;;4.76;100.00;101164.41;5347764;26;19993;-73
2024/04/24 01:03:03;;;;;;;14.07;3.65;;;;;;;4.75;100.00;101163.53;5348101;26;20012;-67
2024/04/24 01:05:30;;;;;;;11.90;3.70;;;;;;;4.72;100.00;101152.97;5347733;26;20003;-66
2024/04/24 01:07:55;;;;;;;15.60;3.70;;;;;;;4.70;100.00;101163.41;5389567;26;20004;-66
2024/04/24 01:10:21;;;;;;;12.85;3.60;;;;;;;4.76;100.00;101154.84;5347846;26;20067;-66
2024/04/24 01:12:48;;;;;;;15.10;3.90;;;;;;;4.66;100.00;101147.50;5347621;26;20051;-66
2024/04/24 01:15:13;;;;;;;15.93;3.80;;;;;;;4.71;100.00;101153.81;5347420;26;20390;-67
2024/04/24 01:17:43;;;;;;;15.85;3.70;;;;;;;4.72;100.00;101152.97;5347843;26;20009;-67
2024/04/24 01:20:14;;;;;;;13.13;3.55;;;;;;;4.73;100.00;101152.09;5347467;26;19989;-67
2024/04/24 01:22:52;;;;;;;15.38;3.72;;;;;;;4.75;100.00;101142.59;5347546;26;20011;-68
2024/04/24 01:25:26;;;;;;;15.05;3.80;;;;;;;4.76;100.00;101143.47;5341062;26;20378;-67
2024/04/24 01:27:52;;;;;;;16.48;3.90;;;;;;;4.75;100.00;101136.44;5342286;26;20001;-66
2024/04/24 01:30:17;;;;;;;15.23;4.15;;;;;;;4.62;100.00;101129.94;5347302;26;20041;-67
2024/04/24 01:32:42;;;;;;;15.07;3.78;;;;;;;4.53;100.00;101120.03;5346923;26;20033;-67
2024/04/24 01:35:08;;;;;;;15.68;4.00;;;;;;;4.47;100.00;101128.59;5347622;26;20003;-66
2024/04/24 01:37:33;;;;;;;15.82;4.00;;;;;;;4.50;100.00;101131.31;5347584;26;20008;-67
2024/04/24 01:39:58;;;;;;;14.75;3.83;;;;;;;4.49;100.00;101132.13;5347104;26;20066;-67
2024/04/24 01:42:24;;;;;;;13.85;3.78;;;;;;;4.51;100.00;101133.09;5347407;26;20070;-66
2024/04/24 01:44:49;;;;;;;12.95;3.70;;;;;;;4.48;100.00;101124.22;5347349;26;19993;-67
2024/04/24 01:47:14;;;;;;;16.45;3.80;;;;;;;4.57;100.00;101121.91;5340272;26;20001;-68
2024/04/24 01:49:40;;;;;;;14.88;3.90;;;;;;;4.62;100.00;101127.31;5347281;26;19997;-70
2024/04/24 01:52:05;;;;;;;16.02;3.83;;;;;;;4.59;100.00;101129.81;5346848;26;20395;-71
2024/04/24 01:54:30;;;;;;;14.95;3.83;;;;;;;4.63;100.00;101113.34;5347442;26;20000;-69
2024/04/24 01:56:55;;;;;;;14.25;3.60;;;;;;;4.70;100.00;101117.97;5347124;26;20001;-69
2024/04/24 01:59:21;;;;;;;15.00;3.72;;;;;;;4.59;100.00;101116.72;5345463;26;19993;-68
2024/04/24 02:01:46;;;;;;;13.82;3.58;;;;;;;4.50;100.00;101120.81;5346944;26;19997;-66
2024/04/24 02:04:11;;;;;;;12.98;3.63;;;;;;;4.49;100.00;101113.81;5346843;26;20035;-70
2024/04/24 02:06:37;;;;;;;14.00;3.75;;;;;;;4.51;100.00;101127.84;5347079;26;20009;-67
2024/04/24 02:09:02;;;;;;;14.02;3.65;;;;;;;4.49;100.00;101112.91;5345548;26;19992;-69
2024/04/24 02:11:27;;;;;;;14.82;4.15;;;;;;;4.57;100.00;101118.41;5389196;26;19997;-68
2024/04/24 02:13:53;;;;;;;15.85;4.10;;;;;;;4.49;100.00;101118.16;5346962;26;20029;-66
2024/04/24 02:16:18;;;;;;;16.20;3.90;;;;;;;4.46;100.00;101107.59;5346811;26;20021;-66
2024/04/24 02:18:43;;;;;;;13.05;3.60;;;;;;;4.42;100.00;101108.31;5389341;26;19993;-67
2024/04/24 02:21:09;;;;;;;14.38;3.95;;;;;;;4.41;100.00;101109.16;5316240;26;20001;-67
2024/04/24 02:23:35;;;;;;;14.23;3.67;;;;;;;4.46;100.00;101103.22;5346750;26;19997;-67
2024/04/24 02:26:07;;;;;;;14.52;3.40;;;;;;;4.51;100.00;101106.91;5346693;26;19999;-69
2024/04/24 02:28:33;;;;;;;14.57;3.47;;;;;;;4.45;100.00;101100.56;5346873;26;20443;-70
2024/04/24 02:30:59;;;;;;;13.80;3.63;;;;;;;4.44;100.00;101104.91;5347012;26;20001;-70
2024/04/24 02:33:24;;;;;;;13.15;3.33;;;;;;;4.37;100.00;101089.84;5346785;26;20004;-70
2024/04/24 02:35:49;;;;;;;14.02;3.30;;;;;;;4.28;100.00;101081.66;5346823;26;19997;-70
2024/04/24 02:38:15;;;;;;;14.50;3.40;;;;;;;4.28;100.00;101071.19;5346305;26;20000;-69
2024/04/24 02:40:40;;;;;;;13.63;3.40;;;;;;;4.23;100.00;101067.56;5346183;26;20004;-67
2024/04/24 02:43:05;;;;;;;14.50;3.35;;;;;;;4.24;100.00;101066.69;5345753;26;20124;-68
2024/04/24 02:45:31;;;;;;;16.33;3.33;;;;;;;4.28;100.00;101066.88;5345916;26;20367;-70
2024/04/24 02:47:56;;;;;;;12.93;3.03;;;;;;;4.20;100.00;101063.09;5344348;26;19997;-70
2024/04/24 02:50:22;;;;;;;17.08;3.47;;;;;;;4.19;100.00;101056.97;5346535;26;20001;-70
2024/04/24 02:52:48;;;;;;;15.27;3.30;;;;;;;4.19;100.00;101054.38;5346210;26;20004;-70
2024/04/24 02:55:13;;;;;;;14.02;3.22;;;;;;;4.19;100.00;101048.22;5346312;26;20076;-71
2024/04/24 02:57:38;;;;;;;10.93;2.78;;;;;;;4.13;100.00;101043.66;5346519;26;20032;-70
2024/04/24 03:00:05;;;;;;;15.05;3.05;;;;;;;4.08;100.00;101036.50;5346244;26;20440;-69
2024/04/24 03:02:30;;;;;;;12.32;2.80;;;;;;;4.05;100.00;101034.69;5346134;26;20448;-70
2024/04/24 03:04:55;;;;;;;11.98;2.85;;;;;;;4.03;100.00;101028.50;5346389;26;19997;-67
2024/04/24 03:07:21;;;;;;;15.85;3.40;;;;;;;4.07;100.00;101034.75;5344227;26;20003;-68
2024/04/24 03:09:46;;;;;;;12.85;2.80;;;;;;;4.07;100.00;101035.63;5346605;26;20051;-71
2024/04/24 03:12:11;;;;;;;12.75;2.78;;;;;;;4.06;100.00;101038.19;5344507;26;20003;-71
2024/04/24 03:14:37;;;;;;;11.65;2.60;;;;;;;3.98;100.00;101032.69;5346201;26;20320;-69
2024/04/24 03:17:02;;;;;;;13.40;2.70;;;;;;;3.89;100.00;101034.97;5346309;26;20005;-71
2024/04/24 03:19:27;;;;;;;10.20;2.50;;;;;;;3.74;100.00;101025.78;5345803;26;20005;-69
2024/04/24 03:21:53;;;;;;;15.15;2.80;;;;;;;3.66;100.00;101027.22;5345861;26;19996;-71
2024/04/24 03:24:18;;;;;;;12.90;2.80;;;;;;;3.49;100.00;101019.69;5346216;26;20000;-71
2024/04/24 03:26:43;;;;;;;17.02;3.42;;;;;;;3.34;100.00;101018.25;5345859;26;20128;-71
2024/04/24 03:29:09;;;;;;;13.23;3.10;;;;;;;3.22;100.00;101013.44;5345240;26;20012;-68
2024/04/24 03:31:34;;;;;;;14.35;3.35;;;;;;;3.11;100.00;101011.31;5345639;26;20004;-68
2024/04/24 03:34:00;;;;;;;12.65;3.00;;;;;;;3.03;100.00;101012.78;5345414;26;19997;-67
2024/04/24 03:36:25;;;;;;;12.35;3.25;;;;;;;2.99;100.00;101008.25;5345668;26;19997;-72
2024/04/24 03:38:50;;;;;;;13.68;3.33;;;;;;;2.99;100.00;101004.75;5345812;26;19996;-72
2024/04/24 03:41:16;;;;;;;16.00;3.35;;;;;;;2.96;100.00;101005.53;5338104;26;20004;-73
2024/04/24 03:43:42;;;;;;;14.77;3.60;;;;;;;3.00;100.00;100997.00;5345572;26;20309;-75
2024/04/24 03:46:07;;;;;;;16.05;3.72;;;;;;;3.11;100.00;101000.84;5345379;26;20115;-67
2024/04/24 03:48:33;;;;;;;15.73;3.67;;;;;;;3.16;100.00;101001.06;5345068;26;20074;-73
2024/04/24 03:50:58;;;;;;;15.88;3.72;;;;;;;3.29;100.00;101003.28;5345118;26;19993;-73
2024/04/24 03:53:23;;;;;;;15.32;3.70;;;;;;;3.46;100.00;101011.72;5344882;26;20004;-75
2024/04/24 03:55:49;;;;;;;16.00;3.85;;;;;;;3.59;100.00;101012.16;5347055;26;19993;-69
2024/04/24 03:58:14;;;;;;;16.25;3.72;;;;;;;3.67;100.00;101015.94;5348833;26;20012;-72
2024/04/24 04:00:39;;;;;;;15.70;3.90;;;;;;;3.70;100.00;101016.06;5348909;26;20436;-74
2024/04/24 04:03:08;;;;;;;11.15;2.95;;;;;;;3.69;100.00;101018.63;5348786;26;19996;-71
2024/04/24 04:05:34;;;;;;;11.40;2.97;;;;;;;3.35;100.00;101020.00;5349047;26;19997;-71
2024/04/24 04:07:59;;;;;;;9.70;2.75;;;;;;;3.21;100.00;101009.06;5348440;26;20011;-70
2024/04/24 04:10:24;;;;;;;12.55;3.00;;;;;;;3.05;100.00;100998.03;5348890;26;20447;-69
2024/04/24 04:12:50;;;;;;;15.15;3.35;;;;;;;2.79;100.00;101002.25;5348625;26;20344;-73
2024/04/24 04:15:17;;;;;;;13.48;3.30;;;;;;;2.77;100.00;101001.31;5348741;26;20007;-69
2024/04/24 04:17:46;;;;;;;13.32;3.45;;;;;;;2.77;100.00;101007.44;5348588;26;20555;-73
2024/04/24 04:20:12;;;;;;;10.90;3.38;;;;;;;2.73;100.00;101002.03;5348719;26;20033;-71
2024/04/24 04:22:37;;;;;;;11.23;3.15;;;;;;;2.69;100.00;101001.00;5348658;26;20000;-75
2024/04/24 04:25:03;;;;;;;12.43;3.30;;;;;;;2.73;100.00;100992.47;5348694;26;19993;-74
2024/04/24 04:27:30;;;;;;;14.75;3.22;;;;;;;2.67;100.00;100989.63;5348653;26;20000;-70
2024/04/24 04:29:56;;;;;;;12.88;3.20;;;;;;;2.63;100.00;100985.13;5348717;26;20066;-69
2024/04/24 04:32:22;;;;;;;13.23;3.53;;;;;;;2.58;100.00;100976.22;5348702;26;20004;-75
2024/04/24 04:34:47;;;;;;;14.50;3.55;;;;;;;2.58;100.00;100977.13;5347153;26;20008;-77
2024/04/24 04:37:12;;;;;;;14.68;3.90;;;;;;;2.58;100.00;100968.41;5348255;26;20015;-75
2024/04/24 04:39:38;;;;;;;17.60;4.30;;;;;;;2.63;100.00;100974.69;5348416;26;20015;-72
2024/04/24 04:42:03;;;;;;;15.52;3.85;;;;;;;2.68;100.00;100974.84;5346495;26;20440;-74
2024/04/24 04:44:29;;;;;;;18.27;4.00;;;;;;;2.74;100.00;100983.81;5348203;26;20066;-71
2024/04/24 04:46:54;;;;;;;16.40;4.13;;;;;;;2.81;100.00;100989.25;5348346;26;20453;-72
2024/04/24 04:49:19;;;;;;;15.93;3.90;;;;;;;2.85;100.00;100997.28;5346413;26;20436;-68
2024/04/24 04:51:45;;;;;;;18.25;4.05;;;;;;;2.87;100.00;100984.28;5348075;26;20345;-68
2024/04/24 04:54:10;;;;;;;16.90;3.85;;;;;;;2.78;100.00;100980.50;5346348;26;20070;-70
2024/04/24 04:56:35;;;;;;;16.17;4.13;;;;;;;2.87;100.00;100966.00;5348023;26;20004;-67
2024/04/24 04:59:01;;;;;;;20.17;4.70;;;;;;;2.92;100.00;100967.06;5348006;26;19993;-68
2024/04/24 05:01:26;;;;;;;16.73;4.30;;;;;;;2.94;100.00;100976.75;5348075;26;19997;-73
2024/04/24 05:03:52;;;;;;;18.80;4.45;;;;;;;2.99;100.00;100973.41;5347781;26;20008;-72
2024/04/24 05:06:17;;;;;;;17.50;4.32;;;;;;;2.98;100.00;100972.50;5346958;26;20437;-67
2024/04/24 05:08:42;;;;;;;17.05;4.03;;;;;;;3.07;100.00;100977.19;5347768;26;19993;-67
2024/04/24 05:11:08;;;;;;;13.48;3.47;;;;;;;3.10;100.00;100972.97;5346327;26;20000;-69
2024/04/24 05:13:33;;;;;;;17.38;3.60;;;;;;;3.17;100.00;100967.97;5360915;26;20004;-67
2024/04/24 05:15:58;;;;;;;15.57;3.20;;;;;;;3.18;100.00;100980.22;5347660;26;20004;-70
2024/04/24 05:18:24;;;;;;;16.23;3.30;;;;;;;3.20;100.00;100982.03;5347485;26;19993;-67
2024/04/24 05:20:50;;;;;;;15.73;3.35;;;;;;;3.25;100.00;100963.94;5347952;26;20324;-67
2024/04/24 05:23:16;;;;;;;15.40;2.90;;;;;;;3.24;100.00;100973.47;5345512;26;20005;-72
2024/04/24 05:25:41;;;;;;;17.10;3.00;;;;;;;3.25;100.00;100964.81;5347384;26;20031;-73
2024/04/24 05:30:51;;;;;;;14.80;2.80;;;;;;;3.27;100.00;100954.41;5347730;26;20068;-72
2024/04/24 05:33:17;;;;;;;17.00;3.10;;;;;;;3.39;100.00;100956.56;5347427;26;20005;-72
2024/04/24 05:35:42;;;;;;;17.25;2.92;;;;;;;3.46;100.00;100954.22;5347335;26;20003;-72
2024/04/24 05:38:08;;;;;;;12.50;2.72;;;;;;;3.54;100.00;100943.13;5347804;26;20460;-71
2024/04/24 05:40:33;;;;;;;15.05;2.97;;;;;;;3.56;100.00;100941.47;5347141;26;20454;-69
2024/04/24 05:42:58;;;;;;;12.70;2.70;;;;;;;3.58;100.00;100939.78;5347134;26;20016;-67
2024/04/24 05:45:24;;;;;;;14.63;2.95;;;;;;;3.59;100.00;100937.22;5347526;26;19997;-70
2024/04/24 05:47:49;;;;;;;15.20;3.08;;;;;;;3.65;100.00;100936.56;5347082;26;20008;-68
2024/04/24 05:50:14;;;;;;;16.00;2.97;;;;;;;3.65;100.00;100941.78;5347047;26;20037;-69
2024/04/24 05:52:40;;;;;;;15.50;2.90;;;;;;;3.72;100.00;100941.16;5347336;26;19997;-66
2024/04/24 05:55:05;;;;;;;12.95;2.60;;;;;;;3.76;100.00;100929.97;5347307;26;20009;-66
2024/04/24 05:57:31;;;;;;;12.38;2.88;;;;;;;3.76;100.00;100936.94;5347033;26;19997;-71
2024/04/24 05:59:56;;;;;;;12.38;2.60;;;;;;;3.80;100.00;100931.84;5347017;26;19997;-70
2024/04/24 06:02:21;;;;;;;14.82;2.83;;;;;;;3.82;100.00;100927.53;5347123;26;20001;-70
2024/04/24 06:04:47;;;;;;;13.20;2.53;;;;;;;3.86;100.00;100927.63;5347961;26;20072;-70
2024/04/24 06:07:13;;;;;;;15.40;2.78;;;;;;;3.77;100.00;100921.28;5345342;26;20001;-68
2024/04/24 06:09:39;;;;;;;15.85;2.90;;;;;;;3.77;100.00;100921.28;5347014;26;19997;-67
2024/04/24 06:12:06;;;;;;;12.95;2.72;;;;;;;3.78;100.00;100920.44;5347322;26;20443;-67
2024/04/24 06:14:31;;;;;;;10.90;2.55;;;;;;;3.72;100.00;100920.22;5346997;26;20008;-69
2024/04/24 06:16:56;;;;;;;12.77;2.63;;;;;;;3.86;100.00;100919.78;5346670;26;20007;-70
2024/04/24 06:19:22;;;;;;;14.57;2.90;;;;;;;3.94;100.00;100924.44;5347020;26;19996;-69
2024/04/24 06:21:47;;;;;;;10.80;2.70;;;;;;;4.05;100.00;100916.97;5347008;26;20001;-70
2024/04/24 06:24:14;;;;;;;11.52;2.70;;;;;;;4.16;100.00;100912.94;5346851;26;20008;-69
2024/04/24 06:26:39;;;;;;;13.90;3.00;;;;;;;4.29;100.00;100919.44;5346843;26;19992;-68
2024/04/24 06:29:05;;;;;;;14.50;3.10;;;;;;;4.29;100.00;100908.09;5346720;26;20008;-71
2024/04/24 06:31:30;;;;;;;13.70;3.30;;;;;;;4.38;100.00;100916.22;5388804;26;19997;-66
2024/04/24 06:33:55;;;;;;;13.38;3.20;;;;;;;4.48;100.00;100909.53;5345195;26;20008;-66
2024/04/24 06:36:21;;;;;;;12.60;3.03;;;;;;;4.45;100.00;100910.31;5346728;26;20005;-66
2024/04/24 06:38:46;;;;;;;11.60;3.00;;;;;;;4.51;100.00;100915.78;5346559;26;20005;-66
2024/04/24 06:41:15;;;;;;;16.17;3.28;;;;;;;4.59;100.00;100915.09;5346391;26;20063;-66
2024/04/24 06:43:42;;;;;;;16.92;3.30;;;;;;;4.63;100.00;100911.72;5346445;26;19997;-67
2024/04/24 06:46:07;;;;;;;15.25;3.30;;;;;;;4.65;100.00;100897.84;5346828;26;20095;-75
2024/04/24 06:48:33;;;;;;;14.43;3.35;;;;;;;4.65;100.00;100904.81;5359701;26;20440;-74
2024/04/24 06:51:01;;;;;;;15.52;3.25;;;;;;;4.70;100.00;100897.97;5346117;26;20004;-68
2024/04/24 06:53:27;;;;;;;16.23;3.50;;;;;;;4.77;100.00;100905.16;5346344;26;20003;-67
2024/04/24 06:55:59;;;;;;;16.95;3.58;;;;;;;4.94;100.00;100904.78;5346394;26;20001;-67
2024/04/24 06:58:25;;;;;;;18.13;3.33;;;;;;;5.00;100.00;100897.09;5340654;26;20029;-69
2024/04/24 07:00:51;;;;;;;15.38;3.33;;;;;;;4.92;100.00;100895.97;5346210;26;20001;-67
2024/04/24 07:03:16;;;;;;;13.60;3.20;;;;;;;4.81;100.00;100891.31;5346400;26;20405;-67
2024/04/24 07:05:42;;;;;;;15.93;3.25;;;;;;;4.96;100.00;100895.22;5341710;26;20336;-67
2024/04/24 07:08:07;;;;;;;15.30;3.15;;;;;;;5.12;100.00;100883.44;5343356;26;20001;-72
2024/04/24 07:10:33;;;;;;;14.50;3.10;;;;;;;5.04;100.00;100888.47;5346232;26;20008;-75
2024/04/24 07:12:58;;;;;;;15.45;3.40;;;;;;;5.20;100.00;100880.16;5345625;26;20001;-72
2024/04/24 07:15:24;;;;;;;14.38;3.10;;;;;;;5.44;100.00;100884.28;5344061;26;20004;-69
2024/04/24 07:17:51;;;;;;;14.95;2.88;;;;;;;5.67;100.00;100877.00;5345806;26;20004;-69
2024/04/24 07:20:17;;;;;;;14.63;3.00;;;;;;;5.65;100.00;100870.84;5387155;26;20359;-68
2024/04/24 07:22:42;;;;;;;13.85;2.65;;;;;;;5.71;100.00;100857.88;5345735;26;20001;-67
2024/04/24 07:25:07;;;;;;;14.57;2.97;;;;;;;5.81;100.00;100879.06;5343811;26;20001;-69
2024/04/24 07:27:33;;;;;;;13.20;2.80;;;;;;;5.81;100.00;100868.56;5345450;26;19997;-67
2024/04/24 07:29:58;;;;;;;13.88;2.75;;;;;;;5.94;100.00;100865.38;5346611;26;20399;-71
2024/04/24 07:32:24;;;;;;;13.50;2.58;;;;;;;6.00;100.00;100869.91;5348906;26;20066;-67
2024/04/24 07:34:49;;;;;;;16.83;2.97;;;;;;;5.91;100.00;100871.47;5348656;26;20008;-67
2024/04/24 07:37:15;;;;;;;15.20;2.83;;;;;;;6.09;100.00;100870.16;5347212;26;20004;-69
2024/04/24 07:39:40;;;;;;;13.40;2.78;;;;;;;6.33;100.00;100867.19;5318393;26;20001;-71
2024/04/24 07:42:05;;;;;;;15.68;2.80;;;;;;;6.58;100.00;100865.09;5346839;26;20452;-75
2024/04/24 07:44:31;;;;;;;14.18;3.20;;;;;;;6.68;100.00;100853.03;5349363;26;20012;-73
2024/04/24 07:46:56;;;;;;;16.30;3.00;;;;;;;6.72;100.00;100857.50;5348741;26;20012;-76
2024/04/24 07:49:21;;;;;;;16.67;3.30;;;;;;;6.89;100.00;100849.97;5349189;26;20004;-76
2024/04/24 07:51:47;;;;;;;17.27;3.10;;;;;;;7.10;100.00;100855.59;5348663;26;20417;-75
2024/04/24 07:54:12;;;;;;;14.38;2.90;;;;;;;7.29;100.00;100850.69;5348579;26;20008;-73
2024/04/24 07:56:37;;;;;;;14.70;2.80;;;;;;;7.08;100.00;100840.69;5348869;26;20020;-71
2024/04/24 07:59:03;;;;;;;13.70;2.72;;;;;;;7.27;100.00;100834.88;5347061;26;20008;-70
2024/04/24 08:01:28;;;;;;;16.67;2.65;;;;;;;7.54;100.00;100830.94;5348405;26;20008;-74
2024/04/24 08:03:54;;;;;;;15.25;2.80;;;;;;;7.48;100.00;100831.75;5346798;26;20070;-70
2024/04/24 08:06:19;;;;;;;14.57;2.78;;;;;;;7.56;100.00;100839.78;5348747;26;20005;-70
2024/04/24 08:08:44;;;;;;;16.35;2.70;;;;;;;7.64;100.00;100842.50;5348090;26;20024;-75
2024/04/24 08:11:10;;;;;;;16.90;3.00;;;;;;;7.68;100.00;100823.28;5348863;26;20074;-72
2024/04/24 08:13:35;;;;;;;15.32;2.63;;;;;;;7.83;100.00;100833.16;5348810;26;19997;-73
2024/04/24 08:16:01;;;;;;;13.23;2.45;;;;;;;7.93;100.00;100834.19;5348497;26;20001;-74
2024/04/24 08:18:26;;;;;;;13.32;2.63;;;;;;;8.13;100.00;100838.00;5348459;26;20510;-75
2024/04/24 08:20:53;;;;;;;16.17;2.60;;;;;;;8.35;100.00;100838.31;5348557;26;20421;-74
2024/04/24 08:23:18;;;;;;;14.65;2.50;;;;;;;8.68;100.00;100843.16;5348375;26;20096;-71
2024/04/24 08:25:44;;;;;;;15.35;2.60;;;;;;;8.85;100.00;100834.53;5348403;26;20009;-66
2024/04/24 08:28:09;;;;;;;12.02;2.40;;;;;;;9.53;100.00;100827.31;5348440;26;20009;-67
2024/04/24 08:30:34;;;;;;;16.02;3.13;;;;;;;9.41;100.00;100841.28;5348731;26;20079;-66
2024/04/24 08:33:00;;;;;;;15.57;2.50;;;;;;;8.99;100.00;100829.44;5348213;26;19997;-67
2024/04/24 08:35:25;;;;;;;14.50;2.55;;;;;;;8.90;100.00;100838.13;5348194;26;19997;-67
2024/04/24 08:37:51;;;;;;;14.18;2.58;;;;;;;9.03;100.00;100839.16;5348193;26;19993;-65
2024/04/24 08:40:17;;;;;;;15.45;2.63;;;;;;;9.24;100.00;100838.47;5347937;26;20289;-66
2024/04/24 08:42:43;;;;;;;16.17;2.60;;;;;;;9.21;100.00;100836.69;5346632;26;20000;-66
2024/04/24 08:45:14;;;;;;;16.75;2.70;;;;;;;9.45;100.00;100816.69;5341174;26;20001;-70
2024/04/24 08:47:39;;;;;;;16.58;2.85;;;;;;;9.85;100.00;100829.31;5341072;26;19996;-69
2024/04/24 08:50:05;;;;;;;17.30;2.90;;;;;;;9.91;100.00;100826.72;5348122;26;19997;-67
2024/04/24 08:52:31;;;;;;;15.10;2.60;;;;;;;9.91;100.00;100821.44;5347906;26;20344;-69
2024/04/24 08:54:58;;;;;;;16.55;2.65;;;;;;;9.34;100.00;100829.78;5347557;26;20003;-67
2024/04/24 08:57:26;;;;;;;17.10;2.80;;;;;;;9.15;100.00;100827.84;5347987;26;20327;-68
2024/04/24 08:59:53;;;;;;;15.75;2.53;;;;;;;9.60;100.00;100815.94;5347857;26;19997;-68
2024/04/24 09:02:21;;;;;;;18.38;2.90;;;;;;;9.81;100.00;100820.47;5347789;26;20001;-67
2024/04/24 09:04:48;;;;;;;19.58;3.40;;;;;;;9.64;100.00;100823.00;5347884;26;20007;-69
2024/04/24 09:07:17;;;;;;;15.18;2.80;;;;;;;9.59;100.00;100814.16;5347985;26;20001;-67
2024/04/24 09:09:43;;;;;;;17.77;2.88;;;;;;;9.50;100.00;100827.28;5347482;26;20003;-67
2024/04/24 09:12:09;;;;;;;18.10;2.80;;;;;;;8.95;100.00;100814.44;5345970;26;19997;-67
2024/04/24 09:14:35;;;;;;;16.83;3.00;;;;;;;8.92;100.00;100825.84;5348003;26;20008;-66
2024/04/24 09:17:02;;;;;;;18.10;3.05;;;;;;;8.40;100.00;100822.56;5390196;26;20343;-68
2024/04/24 09:19:28;;;;;;;16.80;3.00;;;;;;;8.50;100.00;100817.47;5347530;26;19996;-70
2024/04/24 09:21:53;;;;;;;17.38;3.05;;;;;;;8.58;100.00;100819.28;5347417;26;20007;-70
2024/04/24 09:24:19;;;;;;;17.67;3.05;;;;;;;8.70;100.00;100819.44;5347453;26;19997;-70
2024/04/24 09:26:47;;;;;;;16.10;2.80;;;;;;;8.86;100.00;100805.56;5347734;26;20001;-70
2024/04/24 09:29:13;;;;;;;16.52;2.70;;;;;;;9.20;100.00;100800.66;5345675;26;20012;-67
2024/04/24 09:31:38;;;;;;;14.38;2.70;;;;;;;9.72;100.00;100807.22;5347216;26;20016;-70
2024/04/24 09:34:06;;;;;;;16.02;2.78;;;;;;;10.23;100.00;100815.47;5347556;26;19997;-70
2024/04/24 09:36:32;;;;;;;15.35;2.50;;;;;;;10.43;100.00;100800.63;5347440;26;20037;-70
2024/04/24 09:38:58;;;;;;;13.70;2.58;;;;;;;10.63;100.00;100802.47;5347505;26;19993;-68
2024/04/24 09:41:23;;;;;;;12.82;2.30;;;;;;;10.42;100.00;100797.97;5346940;26;20001;-70
2024/04/24 09:43:50;;;;;;;13.18;2.35;;;;;;;10.57;100.00;100808.63;5347569;26;20013;-67
2024/04/24 09:46:18;;;;;;;12.77;2.45;;;;;;;11.01;100.00;100801.69;5347052;26;20009;-69
2024/04/24 09:48:44;;;;;;;13.07;2.55;;;;;;;11.41;100.00;100809.66;5347087;26;19997;-67
2024/04/24 09:51:11;;;;;;;11.00;2.30;;;;;;;12.70;100.00;100805.00;5340805;26;19996;-71
2024/04/24 09:53:37;;;;;;;10.98;2.17;;;;;;;13.37;100.00;100805.47;5346156;26;20007;-70
2024/04/24 09:56:11;;;;;;;15.02;2.55;;;;;;;12.95;100.00;100812.81;5347226;26;20357;-66
2024/04/24 09:58:41;;;;;;;12.60;2.40;;;;;;;12.25;100.00;100809.59;5347539;26;20009;-69
2024/04/24 10:01:10;;;;;;;14.60;2.50;;;;;;;12.69;100.00;100808.53;5347389;26;20001;-70
2024/04/24 10:03:39;;;;;;;14.50;2.22;;;;;;;13.39;100.00;100793.06;5341983;26;19993;-66
2024/04/24 10:06:07;;;;;;;13.75;2.40;;;;;;;12.61;100.00;100803.25;5345820;26;20005;-67
2024/04/24 10:08:36;;;;;;;10.68;2.45;;;;;;;12.10;100.00;100795.50;5346930;26;20331;-67
2024/04/24 10:11:05;;;;;;;12.65;2.60;;;;;;;12.29;100.00;100800.72;5346952;26;19997;-69
2024/04/24 10:13:34;;;;;;;12.13;2.70;;;;;;;12.60;100.00;100796.19;5344915;26;20353;-67
2024/04/24 10:16:03;;;;;;;13.13;2.58;;;;;;;11.73;100.00;100784.06;5346917;26;20001;-66
2024/04/24 10:18:29;;;;;;;14.10;2.70;;;;;;;11.06;100.00;100802.56;5346906;26;20007;-66
2024/04/24 10:20:55;;;;;;;15.55;2.55;;;;;;;12.27;100.00;100797.19;5346844;26;20001;-67
2024/04/24 10:23:21;;;;;;;15.10;2.70;;;;;;;12.79;100.00;100780.19;5346822;26;19996;-67
2024/04/24 10:25:50;;;;;;;13.73;2.53;;;;;;;12.85;100.00;100781.00;5347023;26;20001;-69
2024/04/24 10:28:17;;;;;;;14.10;2.50;;;;;;;13.13;100.00;100775.53;5339968;26;20071;-66
2024/04/24 10:30:45;;;;;;;12.40;2.33;;;;;;;12.27;100.00;100774.22;5346899;26;20005;-67
2024/04/24 10:33:12;;;;;;;8.45;1.90;;;;;;;10.24;100.00;100814.59;5347020;26;20029;-68
2024/04/24 10:35:38;;;;;;;11.60;2.03;;;;;;;8.94;100.00;100800.41;5346664;26;19997;-68
2024/04/24 10:38:05;;;;;;;7.20;2.00;;;;;;;8.06;100.00;100787.88;5346342;26;20005;-71
2024/04/24 10:40:31;;;;;;;10.10;1.90;;;;;;;7.99;100.00;100782.53;5346636;26;20338;-70
2024/04/24 10:43:04;;;;;;;12.32;2.17;;;;;;;8.12;100.00;100782.69;5346287;26;20024;-70
2024/04/24 10:45:36;;;;;;;10.80;2.10;;;;;;;8.70;100.00;100788.69;5346484;26;20012;-68
2024/04/24 10:48:02;;;;;;;9.98;2.40;;;;;;;10.59;100.00;100774.25;5346498;26;20030;-67
2024/04/24 10:50:28;;;;;;;8.15;2.00;;;;;;;12.79;100.00;100781.06;5346227;26;19997;-70
2024/04/24 10:52:55;;;;;;;7.63;2.10;;;;;;;14.33;100.00;100769.97;5346012;26;20462;-70
2024/04/24 10:55:21;;;;;;;7.70;1.98;;;;;;;15.29;100.00;100762.44;5346469;26;20412;-70
2024/04/24 10:57:48;;;;;;;5.70;1.90;;;;;;;15.98;100.00;100759.47;5346374;26;19997;-70
2024/04/24 11:00:18;;;;;;;5.80;1.90;;;;;;;16.69;100.00;100763.34;5346208;26;20312;-71
2024/04/24 11:02:44;;;;;;;6.53;1.85;;;;;;;16.66;100.00;100756.28;5346337;26;20004;-70
2024/04/24 11:05:12;;;;;;;5.43;1.88;;;;;;;17.88;100.00;100758.66;5346636;26;20013;-69
2024/04/24 11:07:38;;;;;;;7.00;1.90;;;;;;;18.77;100.00;100757.88;5349428;26;19993;-70
2024/04/24 11:10:05;;;;;;;7.28;2.00;;;;;;;18.02;100.00;100757.41;5349230;26;20008;-68
2024/04/24 11:12:38;;;;;;;5.85;1.90;;;;;;;18.00;100.00;100746.75;5349079;26;20450;-66
2024/04/24 11:15:05;;;;;;;6.15;1.90;;;;;;;18.23;100.00;100747.88;5349085;26;20030;-67